Karachi, Pakistan
Current Conditions -  °F | °C
As of 9:25 PM on Friday 24 Oct 2014 (Local Time) from OPKC Reporting Station
Clear Clear  
Wind Chill: 77°   Ceiling: Unl
Heat Index: 79°   Visibility: 4mi
Dew Point: 55°   Wind: 2mph
Humidity: 47%   Direction: 30°NNE
Pressure: 29.88"   Gusts: NA
Location:  24.86°N, 67.01°E
Report Text: OPKC 241625Z 03002KT 7000 NSC 25/13 Q1012 NOSIG
Loading
Personal Weather Stations






























Interactive Weather Map
Tropical Storm Tracking
New forecast layout! Learn more

10-Day Weather Forecast

Advertisements
Track Severe Weather on mobile